Archival Weather

Chicago O'Hare International

Chicago, Illinois (KORD)

Report from: Thursday, November 24, 2022 8:51 AM CST
Current time: Sunday, December 4, 2022 5:20 AM CST

Current weather
Weather history
Weather forecast

Temperature5.6°C (42.1°F)
Wind chill3.2°C (37.7°F)
Dew point0.6°C (33.1°F)
Winds 6 kts (3.1 m/s, 6.9 mph) South (180°)
Visibility10 mi. (16.1 km)
Clouds Few clouds 4,600 ft. (1,402 m)
Ceiling: Broken clouds 11,000 ft. (3,353 m)
Overcast 14,000 ft. (4,267 m)
Altimeter30.13 in.Hg (1020 mB)
Relative humidity70 %
Density altitude-1,278 ft. (-390 m)
Sea-level pressure102.1 kPa (1021 mB, 30.14 in.Hg)
Remarks System requires maintenance
Automated weather observing station with precipitation discriminator
Pressure falling more quickly
Flight conditions Visual Meteorological Conditions
Raw dataKORD 241451Z 18006KT 10SM FEW046 BKN110 OVC140 06/01 A3013 RMK AO2 SLP208 T00560006 58001 $
An error has occurred. This application may no longer respond until reloaded. Reload 🗙